M/V Frank Stegbauer — WCX7185 — position and weather

sailwx.info

Track history (hours):
 
Tides and Currents Weather Stations Pressure Air Temp Water Temp Dewpoint Dewpoint Depression Visibility Wind Speed Wind Dir Waves Ship Positions

M/V Frank Stegbauer

Owner: SOUTHERN TOWING COMPANY LLC., MEMPHIS, TN. More information available from US FCC via Universal Licensing System and Coast Guard Vessel Documentation Center.

Last reported at 2017-Sep-22 02:01 UTC. Time now 2017-Sep-24 05:15 UTC.
Position N 38°58' W 090°26'.

Length 40 m; draft 8.6 m.

MMSI: 366917110.

Date/timePositionNaut miles runAvg speedWind from/ knotsBaromVisibWave heightAir tempDewpointWater temp
2017-Sep-22 02:01N 38°58' W 090°26'1 2.3
2017-Sep-22 01:31N 38°58' W 090°24'0 0.0
2017-Sep-22 01:01N 38°58' W 090°24'0 0.0
2017-Sep-22 00:31N 38°58' W 090°24'0 0.0
2017-Sep-22 00:01N 38°58' W 090°24'0 0.0
2017-Sep-21 23:31N 38°58' W 090°24'0 0.0
2017-Sep-21 23:00N 38°58' W 090°24'0 0.0
2017-Sep-21 22:31N 38°58' W 090°24'0 0.0
2017-Sep-21 22:00N 38°58' W 090°24'0 0.0
2017-Sep-21 21:30N 38°58' W 090°24'0 0.0
2017-Sep-21 21:01N 38°58' W 090°24'0 0.4
2017-Sep-21 20:30N 38°58' W 090°25'3 5.1
2017-Sep-21 20:01N 38°57' W 090°28'3 6.6
2017-Sep-21 19:30N 38°55' W 090°31'112 3.1
2017-Sep-20 07:07N 40°43' W 091°07'3 5.8
2017-Sep-20 06:40N 40°46' W 091°06'1 6.1
2017-Sep-20 06:30N 40°47' W 091°06'3 5.7
2017-Sep-20 06:00N 40°50' W 091°05'0 0.7
2017-Sep-20 05:30N 40°50' W 091°05'0 0.1
2017-Sep-20 05:00N 40°50' W 091°05'0 0.0
2017-Sep-20 04:30N 40°50' W 091°05'0 0.0
2017-Sep-20 04:00N 40°50' W 091°05'1 2.8
2017-Sep-20 03:31N 40°48' W 091°06'0 0.3
2017-Sep-20 03:00N 40°48' W 091°06'0 0.0
2017-Sep-20 02:30N 40°48' W 091°06'0 0.0
2017-Sep-20 02:00N 40°48' W 091°06'0 0.0
2017-Sep-20 01:30N 40°48' W 091°06'0 0.0
2017-Sep-20 01:00N 40°48' W 091°06'0 0.0
2017-Sep-20 00:30N 40°48' W 091°06'0 0.0
2017-Sep-20 00:00N 40°48' W 091°06'0 0.0
2017-Sep-19 23:30N 40°48' W 091°06'0 0.0
2017-Sep-19 23:00N 40°48' W 091°06'0 0.0
2017-Sep-19 22:30N 40°48' W 091°06'0 0.0
2017-Sep-19 22:00N 40°48' W 091°06'0 0.0
2017-Sep-19 21:29N 40°48' W 091°06'1 3.0
2017-Sep-19 21:00N 40°50' W 091°05'0 0.1
2017-Sep-19 20:29N 40°50' W 091°05'0 0.2
2017-Sep-19 20:00N 40°50' W 091°05'1 1.4
2017-Sep-19 19:30N 40°49' W 091°06'0 0.2
2017-Sep-19 19:00N 40°50' W 091°06'0 0.0
2017-Sep-19 18:30N 40°50' W 091°06'0 0.0
2017-Sep-19 18:00N 40°50' W 091°06'0 0.0
2017-Sep-19 17:30N 40°50' W 091°06'0 0.0
2017-Sep-19 17:00N 40°50' W 091°06'0 0.0
2017-Sep-19 16:30N 40°50' W 091°06'0 0.0
2017-Sep-19 16:00N 40°50' W 091°06'0 0.0
2017-Sep-19 15:30N 40°50' W 091°06'0 0.0
2017-Sep-19 15:00N 40°50' W 091°06'1 1.1
2017-Sep-19 14:30N 40°50' W 091°05'0 0.0
2017-Sep-19 14:00N 40°50' W 091°05'0 0.0
2017-Sep-19 13:30N 40°50' W 091°05'0 0.0
2017-Sep-19 13:00N 40°50' W 091°05'0 0.0
2017-Sep-19 12:30N 40°50' W 091°05'0 1.0
2017-Sep-19 12:00N 40°49' W 091°06'0 0.8
2017-Sep-19 11:30N 40°50' W 091°06'0 0.0
2017-Sep-19 11:00N 40°50' W 091°06'0 0.0
2017-Sep-19 10:30N 40°50' W 091°06'  
2017-Sep-16 18:13N 38°55' W 090°31'1 5.6
2017-Sep-16 18:00N 38°56' W 090°30'3 5.5
2017-Sep-16 17:30N 38°57' W 090°27'1 2.8
2017-Sep-16 17:00N 38°58' W 090°26'3 5.9
2017-Sep-16 16:30N 38°58' W 090°29'2 4.9
2017-Sep-16 16:00N 38°58' W 090°33'  
Track history (hours):
 
Tides and Currents Weather Stations Pressure Air Temp Water Temp Dewpoint Dewpoint Depression Visibility Wind Speed Wind Dir Waves Ship Positions

M/V Frank Stegbauer

Owner: SOUTHERN TOWING COMPANY LLC., MEMPHIS, TN. More information available from US FCC via Universal Licensing System and Coast Guard Vessel Documentation Center.

Last reported at 2017-Sep-22 02:01 UTC. Time now 2017-Sep-24 05:15 UTC.
Position N 38°58' W 090°26'.

Length 40 m; draft 8.6 m.

MMSI: 366917110.

Date/timePositionNaut miles runAvg speedWind from/ knotsBaromVisibWave heightAir tempDewpointWater temp
2017-Sep-22 02:01N 38°58' W 090°26'1 2.3
2017-Sep-22 01:31N 38°58' W 090°24'0 0.0
2017-Sep-22 01:01N 38°58' W 090°24'0 0.0
2017-Sep-22 00:31N 38°58' W 090°24'0 0.0
2017-Sep-22 00:01N 38°58' W 090°24'0 0.0
2017-Sep-21 23:31N 38°58' W 090°24'0 0.0
2017-Sep-21 23:00N 38°58' W 090°24'0 0.0
2017-Sep-21 22:31N 38°58' W 090°24'0 0.0
2017-Sep-21 22:00N 38°58' W 090°24'0 0.0
2017-Sep-21 21:30N 38°58' W 090°24'0 0.0
2017-Sep-21 21:01N 38°58' W 090°24'0 0.4
2017-Sep-21 20:30N 38°58' W 090°25'3 5.1
2017-Sep-21 20:01N 38°57' W 090°28'3 6.6
2017-Sep-21 19:30N 38°55' W 090°31'112 3.1
2017-Sep-20 07:07N 40°43' W 091°07'3 5.8
2017-Sep-20 06:40N 40°46' W 091°06'1 6.1
2017-Sep-20 06:30N 40°47' W 091°06'3 5.7
2017-Sep-20 06:00N 40°50' W 091°05'0 0.7
2017-Sep-20 05:30N 40°50' W 091°05'0 0.1
2017-Sep-20 05:00N 40°50' W 091°05'0 0.0
2017-Sep-20 04:30N 40°50' W 091°05'0 0.0
2017-Sep-20 04:00N 40°50' W 091°05'1 2.8
2017-Sep-20 03:31N 40°48' W 091°06'0 0.3
2017-Sep-20 03:00N 40°48' W 091°06'0 0.0
2017-Sep-20 02:30N 40°48' W 091°06'0 0.0
2017-Sep-20 02:00N 40°48' W 091°06'0 0.0
2017-Sep-20 01:30N 40°48' W 091°06'0 0.0
2017-Sep-20 01:00N 40°48' W 091°06'0 0.0
2017-Sep-20 00:30N 40°48' W 091°06'0 0.0
2017-Sep-20 00:00N 40°48' W 091°06'0 0.0
2017-Sep-19 23:30N 40°48' W 091°06'0 0.0
2017-Sep-19 23:00N 40°48' W 091°06'0 0.0
2017-Sep-19 22:30N 40°48' W 091°06'0 0.0
2017-Sep-19 22:00N 40°48' W 091°06'0 0.0
2017-Sep-19 21:29N 40°48' W 091°06'1 3.0
2017-Sep-19 21:00N 40°50' W 091°05'0 0.1
2017-Sep-19 20:29N 40°50' W 091°05'0 0.2
2017-Sep-19 20:00N 40°50' W 091°05'1 1.4
2017-Sep-19 19:30N 40°49' W 091°06'0 0.2
2017-Sep-19 19:00N 40°50' W 091°06'0 0.0
2017-Sep-19 18:30N 40°50' W 091°06'0 0.0
2017-Sep-19 18:00N 40°50' W 091°06'0 0.0
2017-Sep-19 17:30N 40°50' W 091°06'0 0.0
2017-Sep-19 17:00N 40°50' W 091°06'0 0.0
2017-Sep-19 16:30N 40°50' W 091°06'0 0.0
2017-Sep-19 16:00N 40°50' W 091°06'0 0.0
2017-Sep-19 15:30N 40°50' W 091°06'0 0.0
2017-Sep-19 15:00N 40°50' W 091°06'1 1.1
2017-Sep-19 14:30N 40°50' W 091°05'0 0.0
2017-Sep-19 14:00N 40°50' W 091°05'0 0.0
2017-Sep-19 13:30N 40°50' W 091°05'0 0.0
2017-Sep-19 13:00N 40°50' W 091°05'0 0.0
2017-Sep-19 12:30N 40°50' W 091°05'0 1.0
2017-Sep-19 12:00N 40°49' W 091°06'0 0.8
2017-Sep-19 11:30N 40°50' W 091°06'0 0.0
2017-Sep-19 11:00N 40°50' W 091°06'0 0.0
2017-Sep-19 10:30N 40°50' W 091°06'  
2017-Sep-16 18:13N 38°55' W 090°31'1 5.6
2017-Sep-16 18:00N 38°56' W 090°30'3 5.5
2017-Sep-16 17:30N 38°57' W 090°27'1 2.8
2017-Sep-16 17:00N 38°58' W 090°26'3 5.9
2017-Sep-16 16:30N 38°58' W 090°29'2 4.9
2017-Sep-16 16:00N 38°58' W 090°33'  

Dump ship's entire track history